sensor_id;sensor_type;location;lat;lon;timestamp;temperature;humidity
14893;DHT22;7538;53.626;9.906;2024-03-23T00:54:27;8.90;99.90
14893;DHT22;7538;53.626;9.906;2024-03-23T00:56:52;8.90;99.90
14893;DHT22;7538;53.626;9.906;2024-03-23T00:59:19;8.80;99.90
14893;DHT22;7538;53.626;9.906;2024-03-23T01:01:45;8.80;99.90
14893;DHT22;7538;53.626;9.906;2024-03-23T01:04:12;8.80;99.90
14893;DHT22;7538;53.626;9.906;2024-03-23T01:06:37;8.80;99.90
14893;DHT22;7538;53.626;9.906;2024-03-23T01:09:04;8.80;99.90
14893;DHT22;7538;53.626;9.906;2024-03-23T01:11:31;8.70;99.90
14893;DHT22;7538;53.626;9.906;2024-03-23T01:13:58;8.70;99.90
14893;DHT22;7538;53.626;9.906;2024-03-23T01:16:23;8.70;99.90
14893;DHT22;7538;53.626;9.906;2024-03-23T01:18:50;8.60;99.90
14893;DHT22;7538;53.626;9.906;2024-03-23T01:21:16;8.60;99.90
14893;DHT22;7538;53.626;9.906;2024-03-23T01:23:43;8.60;99.90
14893;DHT22;7538;53.626;9.906;2024-03-23T01:26:08;8.60;99.90
14893;DHT22;7538;53.626;9.906;2024-03-23T01:28:36;8.60;99.90
14893;DHT22;7538;53.626;9.906;2024-03-23T01:31:02;8.60;99.90
14893;DHT22;7538;53.626;9.906;2024-03-23T01:33:29;8.60;99.90
14893;DHT22;7538;53.626;9.906;2024-03-23T01:35:55;8.60;99.90
14893;DHT22;7538;53.626;9.906;2024-03-23T01:38:22;8.50;99.90
14893;DHT22;7538;53.626;9.906;2024-03-23T01:40:48;8.50;99.90
14893;DHT22;7538;53.626;9.906;2024-03-23T01:43:14;8.50;99.90
14893;DHT22;7538;53.626;9.906;2024-03-23T01:45:42;8.50;99.90
14893;DHT22;7538;53.626;9.906;2024-03-23T01:48:08;8.50;99.90
14893;DHT22;7538;53.626;9.906;2024-03-23T01:50:36;8.50;99.90
14893;DHT22;7538;53.626;9.906;2024-03-23T01:53:03;8.50;99.90
14893;DHT22;7538;53.626;9.906;2024-03-23T01:55:31;8.40;99.90
14893;DHT22;7538;53.626;9.906;2024-03-23T01:57:58;8.40;99.90
14893;DHT22;7538;53.626;9.906;2024-03-23T02:00:24;8.40;99.90
14893;DHT22;7538;53.626;9.906;2024-03-23T02:02:54;8.40;99.90
14893;DHT22;7538;53.626;9.906;2024-03-23T02:05:21;8.40;99.90
14893;DHT22;7538;53.626;9.906;2024-03-23T02:07:48;8.40;99.90
14893;DHT22;7538;53.626;9.906;2024-03-23T02:10:14;8.30;99.90
14893;DHT22;7538;53.626;9.906;2024-03-23T02:12:41;8.30;99.90
14893;DHT22;7538;53.626;9.906;2024-03-23T02:15:07;8.30;99.90
14893;DHT22;7538;53.626;9.906;2024-03-23T02:17:35;8.30;99.90
14893;DHT22;7538;53.626;9.906;2024-03-23T02:20:03;8.30;99.90
14893;DHT22;7538;53.626;9.906;2024-03-23T02:22:35;8.20;99.90
14893;DHT22;7538;53.626;9.906;2024-03-23T02:25:03;10.50;99.90
14893;DHT22;7538;53.626;9.906;2024-03-23T02:27:30;8.20;99.90
14893;DHT22;7538;53.626;9.906;2024-03-23T02:29:56;8.20;99.90
14893;DHT22;7538;53.626;9.906;2024-03-23T02:32:22;8.10;99.90
14893;DHT22;7538;53.626;9.906;2024-03-23T02:34:48;8.10;99.90
14893;DHT22;7538;53.626;9.906;2024-03-23T02:37:15;8.30;99.90
14893;DHT22;7538;53.626;9.906;2024-03-23T02:39:40;8.10;99.90
14893;DHT22;7538;53.626;9.906;2024-03-23T02:42:08;8.10;99.90
14893;DHT22;7538;53.626;9.906;2024-03-23T02:44:34;8.00;99.90
14893;DHT22;7538;53.626;9.906;2024-03-23T02:47:01;8.00;99.90
14893;DHT22;7538;53.626;9.906;2024-03-23T02:49:27;8.00;99.90
14893;DHT22;7538;53.626;9.906;2024-03-23T02:51:53;8.00;99.90
14893;DHT22;7538;53.626;9.906;2024-03-23T02:54:19;7.90;99.90
14893;DHT22;7538;53.626;9.906;2024-03-23T02:56:46;7.90;99.90
14893;DHT22;7538;53.626;9.906;2024-03-23T02:59:14;7.90;99.90
14893;DHT22;7538;53.626;9.906;2024-03-23T03:01:39;7.90;99.90
14893;DHT22;7538;53.626;9.906;2024-03-23T03:04:06;7.90;99.90
14893;DHT22;7538;53.626;9.906;2024-03-23T03:06:32;7.90;99.90
14893;DHT22;7538;53.626;9.906;2024-03-23T03:08:59;7.90;99.90
14893;DHT22;7538;53.626;9.906;2024-03-23T03:11:24;7.90;99.90
14893;DHT22;7538;53.626;9.906;2024-03-23T03:13:51;7.80;99.90
14893;DHT22;7538;53.626;9.906;2024-03-23T03:16:18;7.80;99.90
14893;DHT22;7538;53.626;9.906;2024-03-23T03:18:45;10.50;99.90
14893;DHT22;7538;53.626;9.906;2024-03-23T03:21:12;7.80;99.90
14893;DHT22;7538;53.626;9.906;2024-03-23T03:23:39;8.40;99.90
14893;DHT22;7538;53.626;9.906;2024-03-23T03:26:05;7.80;99.90
14893;DHT22;7538;53.626;9.906;2024-03-23T03:28:32;7.80;99.90
14893;DHT22;7538;53.626;9.906;2024-03-23T03:30:58;7.80;99.90
14893;DHT22;7538;53.626;9.906;2024-03-23T03:33:26;7.90;99.90
14893;DHT22;7538;53.626;9.906;2024-03-23T03:35:52;7.80;99.90
14893;DHT22;7538;53.626;9.906;2024-03-23T03:38:19;7.80;99.90
14893;DHT22;7538;53.626;9.906;2024-03-23T03:40:44;7.80;99.90
14893;DHT22;7538;53.626;9.906;2024-03-23T03:43:11;7.80;99.90
14893;DHT22;7538;53.626;9.906;2024-03-23T03:45:37;7.80;99.90
14893;DHT22;7538;53.626;9.906;2024-03-23T03:48:04;7.80;99.90
14893;DHT22;7538;53.626;9.906;2024-03-23T03:50:31;7.80;99.90
14893;DHT22;7538;53.626;9.906;2024-03-23T03:52:58;7.80;99.90
14893;DHT22;7538;53.626;9.906;2024-03-23T03:55:23;5.30;99.90
14893;DHT22;7538;53.626;9.906;2024-03-23T03:57:50;7.80;99.90
14893;DHT22;7538;53.626;9.906;2024-03-23T04:00:16;7.80;99.90
14893;DHT22;7538;53.626;9.906;2024-03-23T04:02:43;7.80;99.90
14893;DHT22;7538;53.626;9.906;2024-03-23T04:05:09;7.70;99.90
14893;DHT22;7538;53.626;9.906;2024-03-23T04:07:37;7.70;99.90
14893;DHT22;7538;53.626;9.906;2024-03-23T04:10:03;7.70;99.90
14893;DHT22;7538;53.626;9.906;2024-03-23T04:12:33;7.70;99.90
14893;DHT22;7538;53.626;9.906;2024-03-23T04:14:58;7.70;99.90
14893;DHT22;7538;53.626;9.906;2024-03-23T04:17:26;7.70;99.90
14893;DHT22;7538;53.626;9.906;2024-03-23T04:19:56;7.70;99.90
14893;DHT22;7538;53.626;9.906;2024-03-23T04:22:22;7.60;99.90
14893;DHT22;7538;53.626;9.906;2024-03-23T04:24:51;7.60;99.90
14893;DHT22;7538;53.626;9.906;2024-03-23T04:27:17;7.60;99.90
14893;DHT22;7538;53.626;9.906;2024-03-23T04:29:46;7.60;99.90
14893;DHT22;7538;53.626;9.906;2024-03-23T04:32:13;7.60;99.90
14893;DHT22;7538;53.626;9.906;2024-03-23T04:34:39;7.50;99.90
14893;DHT22;7538;53.626;9.906;2024-03-23T04:37:06;7.60;99.90
14893;DHT22;7538;53.626;9.906;2024-03-23T04:39:31;7.60;99.90
14893;DHT22;7538;53.626;9.906;2024-03-23T04:42:00;7.50;99.90
14893;DHT22;7538;53.626;9.906;2024-03-23T04:44:26;7.50;99.90
14893;DHT22;7538;53.626;9.906;2024-03-23T04:46:53;7.50;99.90
14893;DHT22;7538;53.626;9.906;2024-03-23T04:49:20;7.50;99.90
14893;DHT22;7538;53.626;9.906;2024-03-23T04:51:45;7.50;99.90
14893;DHT22;7538;53.626;9.906;2024-03-23T04:54:12;7.50;99.90
14893;DHT22;7538;53.626;9.906;2024-03-23T04:56:39;7.50;99.90
14893;DHT22;7538;53.626;9.906;2024-03-23T04:59:07;7.50;99.90
14893;DHT22;7538;53.626;9.906;2024-03-23T05:01:33;7.50;99.90
14893;DHT22;7538;53.626;9.906;2024-03-23T05:04:01;7.40;99.90
14893;DHT22;7538;53.626;9.906;2024-03-23T05:06:27;7.50;99.90
14893;DHT22;7538;53.626;9.906;2024-03-23T05:08:54;7.40;99.90
14893;DHT22;7538;53.626;9.906;2024-03-23T05:11:19;7.40;99.90
14893;DHT22;7538;53.626;9.906;2024-03-23T05:13:46;7.40;99.90
14893;DHT22;7538;53.626;9.906;2024-03-23T05:16:13;7.40;99.90
14893;DHT22;7538;53.626;9.906;2024-03-23T05:18:40;7.40;99.90
14893;DHT22;7538;53.626;9.906;2024-03-23T05:21:06;7.40;99.90
14893;DHT22;7538;53.626;9.906;2024-03-23T05:23:33;7.40;99.90
14893;DHT22;7538;53.626;9.906;2024-03-23T05:25:58;7.40;99.90
14893;DHT22;7538;53.626;9.906;2024-03-23T05:28:25;7.40;99.90
14893;DHT22;7538;53.626;9.906;2024-03-23T05:30:51;7.50;99.90
14893;DHT22;7538;53.626;9.906;2024-03-23T05:33:19;7.40;99.90
14893;DHT22;7538;53.626;9.906;2024-03-23T05:35:45;7.50;99.90
14893;DHT22;7538;53.626;9.906;2024-03-23T05:38:11;7.40;99.90
14893;DHT22;7538;53.626;9.906;2024-03-23T05:40:37;7.50;99.90
14893;DHT22;7538;53.626;9.906;2024-03-23T05:43:05;7.50;99.90
14893;DHT22;7538;53.626;9.906;2024-03-23T05:45:32;7.50;99.90
14893;DHT22;7538;53.626;9.906;2024-03-23T05:47:58;7.50;99.90
14893;DHT22;7538;53.626;9.906;2024-03-23T05:50:26;7.50;99.90
14893;DHT22;7538;53.626;9.906;2024-03-23T05:52:52;7.60;99.90
14893;DHT22;7538;53.626;9.906;2024-03-23T05:55:19;7.60;99.90
14893;DHT22;7538;53.626;9.906;2024-03-23T05:57:44;7.60;99.90
14893;DHT22;7538;53.626;9.906;2024-03-23T06:00:12;7.70;99.90
14893;DHT22;7538;53.626;9.906;2024-03-23T06:02:41;7.70;99.90
14893;DHT22;7538;53.626;9.906;2024-03-23T06:05:10;7.70;99.90
14893;DHT22;7538;53.626;9.906;2024-03-23T06:07:37;7.80;99.90
14893;DHT22;7538;53.626;9.906;2024-03-23T06:10:04;7.80;99.90
14893;DHT22;7538;53.626;9.906;2024-03-23T06:12:31;7.80;99.90
14893;DHT22;7538;53.626;9.906;2024-03-23T06:14:57;7.90;99.90
14893;DHT22;7538;53.626;9.906;2024-03-23T06:17:23;8.00;99.90
14893;DHT22;7538;53.626;9.906;2024-03-23T06:19:50;8.00;99.90
14893;DHT22;7538;53.626;9.906;2024-03-23T06:22:16;8.10;99.90
14893;DHT22;7538;53.626;9.906;2024-03-23T06:24:44;8.20;99.90
14893;DHT22;7538;53.626;9.906;2024-03-23T06:27:10;8.40;99.90
14893;DHT22;7538;53.626;9.906;2024-03-23T06:29:36;8.40;99.90
14893;DHT22;7538;53.626;9.906;2024-03-23T06:32:02;8.50;99.90
14893;DHT22;7538;53.626;9.906;2024-03-23T06:34:29;8.60;99.90
14893;DHT22;7538;53.626;9.906;2024-03-23T06:36:55;8.60;99.90
14893;DHT22;7538;53.626;9.906;2024-03-23T06:39:22;8.70;99.90
14893;DHT22;7538;53.626;9.906;2024-03-23T06:41:53;8.80;99.90
14893;DHT22;7538;53.626;9.906;2024-03-23T06:44:20;9.00;99.90
14893;DHT22;7538;53.626;9.906;2024-03-23T06:46:46;9.10;99.90
14893;DHT22;7538;53.626;9.906;2024-03-23T06:49:13;9.20;99.90
14893;DHT22;7538;53.626;9.906;2024-03-23T06:51:38;9.30;99.90
14893;DHT22;7538;53.626;9.906;2024-03-23T06:54:06;9.40;99.90
14893;DHT22;7538;53.626;9.906;2024-03-23T06:56:31;9.40;99.90
14893;DHT22;7538;53.626;9.906;2024-03-23T06:58:59;9.50;99.90
14893;DHT22;7538;53.626;9.906;2024-03-23T07:01:25;9.60;99.90
14893;DHT22;7538;53.626;9.906;2024-03-23T07:03:52;9.60;99.90
14893;DHT22;7538;53.626;9.906;2024-03-23T07:06:17;9.70;99.90
14893;DHT22;7538;53.626;9.906;2024-03-23T07:08:44;9.70;99.90
14893;DHT22;7538;53.626;9.906;2024-03-23T07:11:10;9.70;99.90
14893;DHT22;7538;53.626;9.906;2024-03-23T07:13:36;9.80;99.90
14893;DHT22;7538;53.626;9.906;2024-03-23T07:16:04;10.00;99.90
14893;DHT22;7538;53.626;9.906;2024-03-23T07:18:31;10.20;99.90
14893;DHT22;7538;53.626;9.906;2024-03-23T07:20:57;10.60;99.90
14893;DHT22;7538;53.626;9.906;2024-03-23T07:23:24;10.80;97.60
14893;DHT22;7538;53.626;9.906;2024-03-23T07:25:56;8.60;95.00
14893;DHT22;7538;53.626;9.906;2024-03-23T07:28:23;11.30;92.50
14893;DHT22;7538;53.626;9.906;2024-03-23T07:31:02;11.40;88.90
14893;DHT22;7538;53.626;9.906;2024-03-23T07:33:30;11.50;86.30
14893;DHT22;7538;53.626;9.906;2024-03-23T07:35:55;11.60;82.30
14893;DHT22;7538;53.626;9.906;2024-03-23T07:38:23;11.70;78.40
14893;DHT22;7538;53.626;9.906;2024-03-23T07:40:48;12.00;77.90
14893;DHT22;7538;53.626;9.906;2024-03-23T07:43:20;12.40;73.00
14893;DHT22;7538;53.626;9.906;2024-03-23T07:45:51;13.40;56.30
14893;DHT22;7538;53.626;9.906;2024-03-23T07:48:18;14.90;40.90
14893;DHT22;7538;53.626;9.906;2024-03-23T07:50:45;16.60;28.50
14893;DHT22;7538;53.626;9.906;2024-03-23T07:53:12;18.20;19.80
14893;DHT22;7538;53.626;9.906;2024-03-23T07:55:38;19.60;10.30
14893;DHT22;7538;53.626;9.906;2024-03-23T07:58:04;20.70;4.80
14893;DHT22;7538;53.626;9.906;2024-03-23T08:00:31;22.10;1.00
14893;DHT22;7538;53.626;9.906;2024-03-23T08:02:58;22.80;1.00
14893;DHT22;7538;53.626;9.906;2024-03-23T08:05:26;23.70;1.00
14893;DHT22;7538;53.626;9.906;2024-03-23T08:07:54;24.40;1.00
14893;DHT22;7538;53.626;9.906;2024-03-23T08:10:19;25.00;1.00
14893;DHT22;7538;53.626;9.906;2024-03-23T08:12:46;25.60;1.00
14893;DHT22;7538;53.626;9.906;2024-03-23T08:15:12;26.20;1.00
14893;DHT22;7538;53.626;9.906;2024-03-23T08:17:38;26.70;1.00
14893;DHT22;7538;53.626;9.906;2024-03-23T08:20:05;27.40;1.00
14893;DHT22;7538;53.626;9.906;2024-03-23T08:22:33;27.80;1.00
14893;DHT22;7538;53.626;9.906;2024-03-23T08:25:01;28.30;1.00
14893;DHT22;7538;53.626;9.906;2024-03-23T08:27:27;28.40;1.00
14893;DHT22;7538;53.626;9.906;2024-03-23T08:29:53;26.90;1.00
14893;DHT22;7538;53.626;9.906;2024-03-23T08:32:20;27.60;1.00
14893;DHT22;7538;53.626;9.906;2024-03-23T08:34:45;27.70;1.00
14893;DHT22;7538;53.626;9.906;2024-03-23T08:37:12;27.40;1.00
14893;DHT22;7538;53.626;9.906;2024-03-23T08:39:38;27.20;1.00
14893;DHT22;7538;53.626;9.906;2024-03-23T08:42:06;26.80;1.00
14893;DHT22;7538;53.626;9.906;2024-03-23T08:44:32;26.60;1.00
14893;DHT22;7538;53.626;9.906;2024-03-23T08:46:59;26.20;1.00
14893;DHT22;7538;53.626;9.906;2024-03-23T08:49:24;26.00;1.00
14893;DHT22;7538;53.626;9.906;2024-03-23T08:51:51;26.30;1.00
14893;DHT22;7538;53.626;9.906;2024-03-23T08:54:17;26.60;1.00
14893;DHT22;7538;53.626;9.906;2024-03-23T08:56:45;27.20;1.00
14893;DHT22;7538;53.626;9.906;2024-03-23T08:59:12;27.80;1.00
14893;DHT22;7538;53.626;9.906;2024-03-23T09:01:39;28.70;1.00
14893;DHT22;7538;53.626;9.906;2024-03-23T09:04:05;29.60;1.00
14893;DHT22;7538;53.626;9.906;2024-03-23T09:06:31;29.70;1.00
14893;DHT22;7538;53.626;9.906;2024-03-23T09:08:58;29.00;1.00
14893;DHT22;7538;53.626;9.906;2024-03-23T09:11:24;28.00;1.00
14893;DHT22;7538;53.626;9.906;2024-03-23T09:13:50;27.00;1.00
14893;DHT22;7538;53.626;9.906;2024-03-23T09:16:17;26.20;1.00
14893;DHT22;7538;53.626;9.906;2024-03-23T09:18:44;25.10;1.00
14893;DHT22;7538;53.626;9.906;2024-03-23T09:21:11;24.10;1.00
14893;DHT22;7538;53.626;9.906;2024-03-23T09:23:38;22.90;1.00
14893;DHT22;7538;53.626;9.906;2024-03-23T09:26:04;22.20;1.00
14893;DHT22;7538;53.626;9.906;2024-03-23T09:28:32;21.90;1.00
14893;DHT22;7538;53.626;9.906;2024-03-23T09:31:02;21.40;1.00
14893;DHT22;7538;53.626;9.906;2024-03-23T09:33:30;20.70;1.00
14893;DHT22;7538;53.626;9.906;2024-03-23T09:35:56;20.00;1.00
14893;DHT22;7538;53.626;9.906;2024-03-23T09:38:23;19.70;1.00
14893;DHT22;7538;53.626;9.906;2024-03-23T09:40:51;19.50;1.00
14893;DHT22;7538;53.626;9.906;2024-03-23T09:43:19;19.20;1.00
14893;DHT22;7538;53.626;9.906;2024-03-23T09:45:46;18.90;1.00
14893;DHT22;7538;53.626;9.906;2024-03-23T09:48:13;18.50;1.00
14893;DHT22;7538;53.626;9.906;2024-03-23T09:50:40;18.30;1.00
14893;DHT22;7538;53.626;9.906;2024-03-23T09:53:08;18.20;1.00
14893;DHT22;7538;53.626;9.906;2024-03-23T09:55:35;17.90;1.00
14893;DHT22;7538;53.626;9.906;2024-03-23T09:58:02;17.50;1.00
14893;DHT22;7538;53.626;9.906;2024-03-23T10:00:27;17.10;1.00
14893;DHT22;7538;53.626;9.906;2024-03-23T10:02:55;16.70;1.00
14893;DHT22;7538;53.626;9.906;2024-03-23T10:05:21;16.40;1.00
14893;DHT22;7538;53.626;9.906;2024-03-23T10:07:50;16.90;1.00
14893;DHT22;7538;53.626;9.906;2024-03-23T10:10:16;18.10;1.00
14893;DHT22;7538;53.626;9.906;2024-03-23T10:12:47;19.60;1.00
14893;DHT22;7538;53.626;9.906;2024-03-23T10:15:18;21.00;1.00
14893;DHT22;7538;53.626;9.906;2024-03-23T10:17:46;22.30;1.00
14893;DHT22;7538;53.626;9.906;2024-03-23T10:20:12;23.10;1.00
14893;DHT22;7538;53.626;9.906;2024-03-23T10:22:39;23.20;1.00
14893;DHT22;7538;53.626;9.906;2024-03-23T10:25:10;22.80;1.00
14893;DHT22;7538;53.626;9.906;2024-03-23T10:27:39;22.30;1.00
14893;DHT22;7538;53.626;9.906;2024-03-23T10:30:09;22.30;1.00
14893;DHT22;7538;53.626;9.906;2024-03-23T10:32:36;22.40;1.00
14893;DHT22;7538;53.626;9.906;2024-03-23T10:35:16;21.90;1.00
14893;DHT22;7538;53.626;9.906;2024-03-23T10:37:44;21.30;1.00
14893;DHT22;7538;53.626;9.906;2024-03-23T10:40:12;20.90;1.00
14893;DHT22;7538;53.626;9.906;2024-03-23T10:42:39;20.10;1.00
14893;DHT22;7538;53.626;9.906;2024-03-23T10:45:06;19.40;1.00
14893;DHT22;7538;53.626;9.906;2024-03-23T10:47:35;19.50;1.00
14893;DHT22;7538;53.626;9.906;2024-03-23T10:50:01;19.90;1.00
14893;DHT22;7538;53.626;9.906;2024-03-23T10:52:28;20.30;1.00
14893;DHT22;7538;53.626;9.906;2024-03-23T10:54:55;20.40;1.00
14893;DHT22;7538;53.626;9.906;2024-03-23T10:57:30;20.40;1.00
14893;DHT22;7538;53.626;9.906;2024-03-23T10:59:57;20.80;1.00
14893;DHT22;7538;53.626;9.906;2024-03-23T11:02:26;21.30;1.00
14893;DHT22;7538;53.626;9.906;2024-03-23T11:04:52;21.50;1.00
14893;DHT22;7538;53.626;9.906;2024-03-23T11:07:31;21.50;1.00
14893;DHT22;7538;53.626;9.906;2024-03-23T11:09:57;21.30;1.00
14893;DHT22;7538;53.626;9.906;2024-03-23T11:12:30;20.70;1.00
14893;DHT22;7538;53.626;9.906;2024-03-23T11:15:01;20.00;1.00
14893;DHT22;7538;53.626;9.906;2024-03-23T11:17:29;19.30;1.00
14893;DHT22;7538;53.626;9.906;2024-03-23T11:19:56;18.60;1.00
14893;DHT22;7538;53.626;9.906;2024-03-23T11:22:40;18.10;1.00
14893;DHT22;7538;53.626;9.906;2024-03-23T11:25:13;17.70;1.00
14893;DHT22;7538;53.626;9.906;2024-03-23T11:30:17;18.10;1.00
14893;DHT22;7538;53.626;9.906;2024-03-23T11:32:45;17.90;1.00
14893;DHT22;7538;53.626;9.906;2024-03-23T11:35:25;17.50;1.00
14893;DHT22;7538;53.626;9.906;2024-03-23T11:38:05;17.10;1.00
14893;DHT22;7538;53.626;9.906;2024-03-23T11:40:32;16.70;1.00
14893;DHT22;7538;53.626;9.906;2024-03-23T11:43:01;16.30;1.00
14893;DHT22;7538;53.626;9.906;2024-03-23T11:45:28;16.10;1.00
14893;DHT22;7538;53.626;9.906;2024-03-23T11:48:02;15.80;1.00
14893;DHT22;7538;53.626;9.906;2024-03-23T11:50:28;15.70;1.00
14893;DHT22;7538;53.626;9.906;2024-03-23T11:53:06;15.60;1.00
14893;DHT22;7538;53.626;9.906;2024-03-23T11:55:39;15.30;1.00
14893;DHT22;7538;53.626;9.906;2024-03-23T11:58:07;15.00;1.00
14893;DHT22;7538;53.626;9.906;2024-03-23T12:00:34;14.30;1.00
14893;DHT22;7538;53.626;9.906;2024-03-23T12:03:01;13.90;1.00
14893;DHT22;7538;53.626;9.906;2024-03-23T12:05:27;13.10;1.00
14893;DHT22;7538;53.626;9.906;2024-03-23T12:07:54;12.70;3.90
14893;DHT22;7538;53.626;9.906;2024-03-23T12:10:20;12.40;6.60
14893;DHT22;7538;53.626;9.906;2024-03-23T12:13:00;12.10;10.90
14893;DHT22;7538;53.626;9.906;2024-03-23T12:15:27;11.80;9.90
14893;DHT22;7538;53.626;9.906;2024-03-23T12:18:06;11.60;11.20
14893;DHT22;7538;53.626;9.906;2024-03-23T12:20:32;11.50;14.20
14893;DHT22;7538;53.626;9.906;2024-03-23T12:23:08;11.40;16.50
14893;DHT22;7538;53.626;9.906;2024-03-23T12:25:35;11.60;15.90
14893;DHT22;7538;53.626;9.906;2024-03-23T12:28:02;11.80;15.30
14893;DHT22;7538;53.626;9.906;2024-03-23T12:30:29;12.00;12.90
14893;DHT22;7538;53.626;9.906;2024-03-23T12:32:56;12.10;12.40
14893;DHT22;7538;53.626;9.906;2024-03-23T12:35:22;12.10;13.40
14893;DHT22;7538;53.626;9.906;2024-03-23T12:37:49;12.00;15.50
14893;DHT22;7538;53.626;9.906;2024-03-23T12:40:14;11.70;22.20
14893;DHT22;7538;53.626;9.906;2024-03-23T12:42:41;11.40;27.50
14893;DHT22;7538;53.626;9.906;2024-03-23T12:45:08;11.20;33.60
14893;DHT22;7538;53.626;9.906;2024-03-23T12:47:36;10.80;34.30
14893;DHT22;7538;53.626;9.906;2024-03-23T12:50:01;10.50;40.10
14893;DHT22;7538;53.626;9.906;2024-03-23T12:52:28;10.30;42.20
14893;DHT22;7538;53.626;9.906;2024-03-23T12:54:55;10.20;45.90
14893;DHT22;7538;53.626;9.906;2024-03-23T12:57:23;10.10;52.40
14893;DHT22;7538;53.626;9.906;2024-03-23T12:59:49;10.10;55.90
14893;DHT22;7538;53.626;9.906;2024-03-23T13:02:18;10.10;54.40
14893;DHT22;7538;53.626;9.906;2024-03-23T13:04:46;10.20;56.40
14893;DHT22;7538;53.626;9.906;2024-03-23T13:07:13;10.30;51.20
14893;DHT22;7538;53.626;9.906;2024-03-23T13:09:38;10.40;47.30
14893;DHT22;7538;53.626;9.906;2024-03-23T13:12:06;10.60;45.30
14893;DHT22;7538;53.626;9.906;2024-03-23T13:14:32;10.70;46.50
14893;DHT22;7538;53.626;9.906;2024-03-23T13:16:59;10.70;46.40
14893;DHT22;7538;53.626;9.906;2024-03-23T13:19:24;10.70;46.10
14893;DHT22;7538;53.626;9.906;2024-03-23T13:21:53;10.80;43.40
14893;DHT22;7538;53.626;9.906;2024-03-23T13:24:22;10.80;42.20
14893;DHT22;7538;53.626;9.906;2024-03-23T13:26:50;10.70;42.50
14893;DHT22;7538;53.626;9.906;2024-03-23T13:29:16;10.70;42.70
14893;DHT22;7538;53.626;9.906;2024-03-23T13:31:42;10.70;44.40
14893;DHT22;7538;53.626;9.906;2024-03-23T13:34:08;10.80;47.30
14893;DHT22;7538;53.626;9.906;2024-03-23T13:36:35;10.90;50.80
14893;DHT22;7538;53.626;9.906;2024-03-23T13:39:02;11.00;48.80
14893;DHT22;7538;53.626;9.906;2024-03-23T13:41:31;11.10;36.00
14893;DHT22;7538;53.626;9.906;2024-03-23T13:43:57;11.10;38.40
14893;DHT22;7538;53.626;9.906;2024-03-23T13:46:24;11.20;38.10
14893;DHT22;7538;53.626;9.906;2024-03-23T13:48:49;11.20;34.50
14893;DHT22;7538;53.626;9.906;2024-03-23T13:51:23;11.20;35.50
14893;DHT22;7538;53.626;9.906;2024-03-23T13:53:49;11.10;36.30
14893;DHT22;7538;53.626;9.906;2024-03-23T13:56:17;11.10;37.20
14893;DHT22;7538;53.626;9.906;2024-03-23T13:58:43;11.20;35.30
14893;DHT22;7538;53.626;9.906;2024-03-23T14:01:15;11.20;36.10
14893;DHT22;7538;53.626;9.906;2024-03-23T14:03:41;11.20;36.60
14893;DHT22;7538;53.626;9.906;2024-03-23T14:06:08;11.20;35.70
14893;DHT22;7538;53.626;9.906;2024-03-23T14:08:34;11.30;32.80
14893;DHT22;7538;53.626;9.906;2024-03-23T14:11:04;11.40;32.20
14893;DHT22;7538;53.626;9.906;2024-03-23T14:13:31;11.50;28.60
14893;DHT22;7538;53.626;9.906;2024-03-23T14:15:59;11.50;24.50
14893;DHT22;7538;53.626;9.906;2024-03-23T14:18:24;11.50;23.30
14893;DHT22;7538;53.626;9.906;2024-03-23T14:20:52;11.50;24.20
14893;DHT22;7538;53.626;9.906;2024-03-23T14:23:19;11.60;23.00
14893;DHT22;7538;53.626;9.906;2024-03-23T14:25:45;11.60;22.40
14893;DHT22;7538;53.626;9.906;2024-03-23T14:28:12;11.60;23.80
14893;DHT22;7538;53.626;9.906;2024-03-23T14:30:42;11.70;24.10
14893;DHT22;7538;53.626;9.906;2024-03-23T14:33:09;11.80;23.60
14893;DHT22;7538;53.626;9.906;2024-03-23T14:35:35;11.90;23.30
14893;DHT22;7538;53.626;9.906;2024-03-23T14:38:02;11.90;22.90
14893;DHT22;7538;53.626;9.906;2024-03-23T14:40:28;11.90;23.00
14893;DHT22;7538;53.626;9.906;2024-03-23T14:42:55;12.00;23.50
14893;DHT22;7538;53.626;9.906;2024-03-23T14:45:21;12.00;23.30
14893;DHT22;7538;53.626;9.906;2024-03-23T14:47:50;12.10;23.80
14893;DHT22;7538;53.626;9.906;2024-03-23T14:50:16;12.10;23.30
14893;DHT22;7538;53.626;9.906;2024-03-23T14:52:44;12.00;22.90
14893;DHT22;7538;53.626;9.906;2024-03-23T14:55:10;11.80;28.00
14893;DHT22;7538;53.626;9.906;2024-03-23T14:57:37;11.50;32.50
14893;DHT22;7538;53.626;9.906;2024-03-23T15:00:06;11.30;40.40
14893;DHT22;7538;53.626;9.906;2024-03-23T15:02:33;11.10;45.80
14893;DHT22;7538;53.626;9.906;2024-03-23T15:05:01;10.90;46.40
14893;DHT22;7538;53.626;9.906;2024-03-23T15:07:29;10.80;45.50
14893;DHT22;7538;53.626;9.906;2024-03-23T15:09:54;10.60;46.50
14893;DHT22;7538;53.626;9.906;2024-03-23T15:12:21;10.50;46.80
14893;DHT22;7538;53.626;9.906;2024-03-23T15:14:47;10.50;48.10
14893;DHT22;7538;53.626;9.906;2024-03-23T15:17:14;10.50;48.50
14893;DHT22;7538;53.626;9.906;2024-03-23T15:19:39;10.50;50.10
14893;DHT22;7538;53.626;9.906;2024-03-23T15:22:09;10.60;47.30
14893;DHT22;7538;53.626;9.906;2024-03-23T15:24:35;10.60;47.00
14893;DHT22;7538;53.626;9.906;2024-03-23T15:27:02;10.50;47.10
14893;DHT22;7538;53.626;9.906;2024-03-23T15:29:28;10.50;45.20
14893;DHT22;7538;53.626;9.906;2024-03-23T15:31:54;10.40;46.50
14893;DHT22;7538;53.626;9.906;2024-03-23T15:34:20;10.40;49.00
14893;DHT22;7538;53.626;9.906;2024-03-23T15:36:48;10.30;50.40
14893;DHT22;7538;53.626;9.906;2024-03-23T15:39:17;10.30;53.40
14893;DHT22;7538;53.626;9.906;2024-03-23T15:41:44;10.20;49.50
14893;DHT22;7538;53.626;9.906;2024-03-23T15:44:10;10.10;51.10
14893;DHT22;7538;53.626;9.906;2024-03-23T15:46:37;10.10;53.00
14893;DHT22;7538;53.626;9.906;2024-03-23T15:49:03;10.00;52.50
14893;DHT22;7538;53.626;9.906;2024-03-23T15:51:29;9.90;55.40
14893;DHT22;7538;53.626;9.906;2024-03-23T15:53:58;9.90;59.80
14893;DHT22;7538;53.626;9.906;2024-03-23T15:56:26;9.90;72.70
14893;DHT22;7538;53.626;9.906;2024-03-23T15:58:54;9.90;76.80
14893;DHT22;7538;53.626;9.906;2024-03-23T16:01:20;10.00;83.00
14893;DHT22;7538;53.626;9.906;2024-03-23T16:03:47;10.10;83.60
14893;DHT22;7538;53.626;9.906;2024-03-23T16:06:14;10.20;82.60
14893;DHT22;7538;53.626;9.906;2024-03-23T16:08:39;10.20;81.30
14893;DHT22;7538;53.626;9.906;2024-03-23T16:11:07;10.20;78.10
14893;DHT22;7538;53.626;9.906;2024-03-23T16:13:35;10.20;78.10
14893;DHT22;7538;53.626;9.906;2024-03-23T16:16:03;10.20;77.50
14893;DHT22;7538;53.626;9.906;2024-03-23T16:18:30;10.20;76.90
14893;DHT22;7538;53.626;9.906;2024-03-23T16:20:58;10.20;70.00
14893;DHT22;7538;53.626;9.906;2024-03-23T16:23:24;10.20;69.90
14893;DHT22;7538;53.626;9.906;2024-03-23T16:25:52;10.10;66.90
14893;DHT22;7538;53.626;9.906;2024-03-23T16:28:23;10.00;64.30
14893;DHT22;7538;53.626;9.906;2024-03-23T16:30:58;9.90;63.10
14893;DHT22;7538;53.626;9.906;2024-03-23T16:33:24;9.80;64.90
14893;DHT22;7538;53.626;9.906;2024-03-23T16:35:56;9.80;65.50
14893;DHT22;7538;53.626;9.906;2024-03-23T16:38:22;9.70;67.50
14893;DHT22;7538;53.626;9.906;2024-03-23T16:40:53;9.70;69.70
14893;DHT22;7538;53.626;9.906;2024-03-23T16:43:19;9.70;72.60
14893;DHT22;7538;53.626;9.906;2024-03-23T16:45:52;9.70;73.30
14893;DHT22;7538;53.626;9.906;2024-03-23T16:48:19;12.40;72.60
14893;DHT22;7538;53.626;9.906;2024-03-23T16:50:46;9.60;70.80
14893;DHT22;7538;53.626;9.906;2024-03-23T16:53:12;9.50;71.10